createdAt,value
2016-12-27T00:00:26.597Z,23.33
2016-12-27T00:01:07.186Z,23.35
2016-12-27T00:01:47.763Z,23.4
2016-12-27T00:02:28.349Z,23.36
2016-12-27T00:03:08.932Z,23.36
2016-12-27T00:03:49.534Z,23.35
2016-12-27T00:04:30.120Z,23.36
2016-12-27T00:05:10.704Z,23.46
2016-12-27T00:05:51.301Z,23.35
2016-12-27T00:06:31.913Z,23.39
2016-12-27T00:07:12.522Z,23.38
2016-12-27T00:07:53.111Z,23.46
2016-12-27T00:08:33.714Z,23.36
2016-12-27T00:09:14.323Z,23.38
2016-12-27T00:09:54.935Z,23.38
2016-12-27T00:10:35.520Z,23.46
2016-12-27T00:11:16.098Z,23.35
2016-12-27T00:11:56.680Z,23.36
2016-12-27T00:12:37.267Z,23.33
2016-12-27T00:13:17.856Z,23.4
2016-12-27T00:13:58.449Z,23.39
2016-12-27T00:14:39.039Z,23.32
2016-12-27T00:15:19.628Z,23.39
2016-12-27T00:16:00.209Z,23.35
2016-12-27T00:16:40.793Z,23.38
2016-12-27T00:17:21.385Z,23.36
2016-12-27T00:18:01.984Z,23.32
2016-12-27T00:18:42.574Z,23.36
2016-12-27T00:19:23.164Z,23.4
2016-12-27T00:20:03.749Z,23.33
2016-12-27T00:20:44.350Z,23.43
2016-12-27T00:21:24.955Z,23.36
2016-12-27T00:22:05.560Z,23.43
2016-12-27T00:22:46.145Z,23.42
2016-12-27T00:23:26.744Z,23.36
2016-12-27T00:24:07.347Z,23.35
2016-12-27T00:24:47.954Z,23.32
2016-12-27T00:25:28.556Z,23.42
2016-12-27T00:26:09.171Z,23.36
2016-12-27T00:26:49.756Z,23.32
2016-12-27T00:27:30.346Z,23.28
2016-12-27T00:28:10.934Z,23.36
2016-12-27T00:28:51.523Z,23.31
2016-12-27T00:29:32.127Z,23.36
2016-12-27T00:30:12.727Z,23.32
2016-12-27T00:30:53.312Z,23.31
2016-12-27T00:31:33.896Z,23.35
2016-12-27T00:32:14.477Z,23.28
2016-12-27T00:32:55.070Z,23.28
2016-12-27T00:33:35.650Z,23.36
2016-12-27T00:34:16.226Z,23.28
2016-12-27T00:34:56.835Z,23.38
2016-12-27T00:35:37.438Z,23.35
2016-12-27T00:36:18.035Z,23.35
2016-12-27T00:36:58.632Z,23.28
2016-12-27T00:37:39.210Z,23.28
2016-12-27T00:38:19.801Z,23.36
2016-12-27T00:39:00.390Z,23.28
2016-12-27T00:39:40.995Z,23.28
2016-12-27T00:40:21.580Z,23.25
2016-12-27T00:41:02.180Z,23.28
2016-12-27T00:41:42.768Z,23.25
2016-12-27T00:42:23.347Z,23.25
2016-12-27T00:43:03.952Z,23.39
2016-12-27T00:43:44.535Z,23.35
2016-12-27T00:44:25.117Z,23.31
2016-12-27T00:45:05.710Z,23.27
2016-12-27T00:45:46.320Z,23.28
2016-12-27T00:46:26.913Z,23.27
2016-12-27T00:47:07.535Z,23.28
2016-12-27T00:47:48.128Z,23.28
2016-12-27T00:48:28.727Z,23.35
2016-12-27T00:49:09.325Z,23.28
2016-12-27T00:49:49.902Z,23.31
2016-12-27T00:50:30.483Z,23.25
2016-12-27T00:51:11.076Z,23.28
2016-12-27T00:51:51.674Z,23.33
2016-12-27T00:52:32.249Z,23.27
2016-12-27T00:53:12.836Z,23.32
2016-12-27T00:53:53.435Z,23.35
2016-12-27T00:54:34.038Z,23.28
2016-12-27T00:55:14.640Z,23.32
2016-12-27T00:55:55.241Z,23.22
2016-12-27T00:56:35.846Z,23.28
2016-12-27T00:57:16.440Z,23.27
2016-12-27T00:57:57.030Z,23.22
2016-12-27T00:58:37.608Z,23.33
2016-12-27T00:59:18.194Z,23.25
2016-12-27T00:59:58.778Z,23.28
2016-12-27T01:00:39.367Z,23.4
2016-12-27T01:01:19.955Z,23.22
2016-12-27T01:02:00.540Z,23.25
2016-12-27T01:02:41.123Z,23.28
2016-12-27T01:03:21.718Z,23.25
2016-12-27T01:04:02.301Z,23.32
2016-12-27T01:04:42.893Z,23.23
2016-12-27T01:05:23.482Z,23.25
2016-12-27T01:06:04.085Z,23.27
2016-12-27T01:06:44.672Z,23.23
2016-12-27T01:07:25.255Z,23.22
2016-12-27T01:08:05.839Z,23.25
2016-12-27T01:08:46.425Z,23.23
2016-12-27T01:09:27.016Z,23.19
2016-12-27T01:10:07.611Z,23.32
2016-12-27T01:10:48.194Z,23.25
2016-12-27T01:11:28.788Z,23.25
2016-12-27T01:12:09.380Z,23.23
2016-12-27T01:12:49.961Z,23.23
2016-12-27T01:13:30.540Z,23.38
2016-12-27T01:14:11.127Z,23.2
2016-12-27T01:14:51.703Z,23.27
2016-12-27T01:15:32.299Z,23.23
2016-12-27T01:16:12.888Z,23.23
2016-12-27T01:16:53.480Z,23.23
2016-12-27T01:17:34.057Z,23.23
2016-12-27T01:18:14.654Z,23.27
2016-12-27T01:18:55.258Z,23.22
2016-12-27T01:19:35.839Z,23.25
2016-12-27T01:20:16.427Z,23.22
2016-12-27T01:20:57.053Z,23.28
2016-12-27T01:21:37.644Z,23.31
2016-12-27T01:22:18.218Z,23.17
2016-12-27T01:22:58.808Z,23.2
2016-12-27T01:23:39.405Z,23.25
2016-12-27T01:24:20.001Z,23.2
2016-12-27T01:25:00.585Z,23.2
2016-12-27T01:25:41.167Z,23.23
2016-12-27T01:26:21.757Z,23.2
2016-12-27T01:27:02.344Z,23.27
2016-12-27T01:27:42.933Z,23.31
2016-12-27T01:28:23.548Z,23.32
2016-12-27T01:29:04.127Z,23.27
2016-12-27T01:29:44.705Z,23.23
2016-12-27T01:30:25.290Z,23.31
2016-12-27T01:31:05.881Z,23.27
2016-12-27T01:31:46.466Z,23.2
2016-12-27T01:32:27.052Z,23.19
2016-12-27T01:33:07.636Z,23.25
2016-12-27T01:33:48.218Z,23.28
2016-12-27T01:34:28.821Z,23.25
2016-12-27T01:35:09.401Z,23.19
2016-12-27T01:35:49.973Z,23.19
2016-12-27T01:36:30.568Z,23.2
2016-12-27T01:37:11.166Z,23.27
2016-12-27T01:37:51.733Z,23.23
2016-12-27T01:38:32.364Z,23.19
2016-12-27T01:39:12.946Z,23.16
2016-12-27T01:39:53.527Z,23.22
2016-12-27T01:40:34.105Z,23.22
2016-12-27T01:41:14.698Z,23.23
2016-12-27T01:41:55.283Z,23.27
2016-12-27T01:42:35.869Z,23.28
2016-12-27T01:43:16.442Z,23.27
2016-12-27T01:43:57.067Z,23.28
2016-12-27T01:44:37.658Z,23.27
2016-12-27T01:45:18.244Z,23.25
2016-12-27T01:45:58.835Z,23.22
2016-12-27T01:46:39.431Z,23.31
2016-12-27T01:47:20.011Z,23.27
2016-12-27T01:48:00.597Z,23.27
2016-12-27T01:48:41.188Z,23.28
2016-12-27T01:49:21.778Z,23.27
2016-12-27T01:50:02.391Z,23.16
2016-12-27T01:50:42.985Z,23.23
2016-12-27T01:51:23.580Z,23.22
2016-12-27T01:52:04.168Z,23.17
2016-12-27T01:52:44.754Z,23.2
2016-12-27T01:53:25.345Z,23.19
2016-12-27T01:54:05.953Z,23.23
2016-12-27T01:54:46.534Z,23.2
2016-12-27T01:55:27.122Z,23.32
2016-12-27T01:56:07.711Z,23.27
2016-12-27T01:56:48.312Z,23.31
2016-12-27T01:57:28.912Z,23.23
2016-12-27T01:58:09.507Z,23.2
2016-12-27T01:58:50.097Z,23.23
2016-12-27T01:59:30.674Z,23.19
2016-12-27T02:00:11.255Z,23.2
2016-12-27T02:00:51.853Z,23.22
2016-12-27T02:01:32.435Z,23.27
2016-12-27T02:02:13.024Z,23.16
2016-12-27T02:02:53.609Z,23.16
2016-12-27T02:03:34.200Z,23.2
2016-12-27T02:04:14.778Z,23.22
2016-12-27T02:04:55.357Z,23.23
2016-12-27T02:05:35.954Z,23.2
2016-12-27T02:06:16.548Z,23.25
2016-12-27T02:06:57.132Z,23.2
2016-12-27T02:07:37.717Z,23.19
2016-12-27T02:08:18.300Z,23.2
2016-12-27T02:08:58.892Z,23.22
2016-12-27T02:09:39.504Z,23.2
2016-12-27T02:10:20.111Z,23.27
2016-12-27T02:11:00.699Z,23.19
2016-12-27T02:11:41.311Z,23.17
2016-12-27T02:12:21.894Z,23.2
2016-12-27T02:13:02.477Z,23.16
2016-12-27T02:13:43.068Z,23.15
2016-12-27T02:14:23.665Z,23.25
2016-12-27T02:15:04.245Z,23.23
2016-12-27T02:15:44.825Z,23.22
2016-12-27T02:16:25.417Z,23.17
2016-12-27T02:17:06.034Z,23.19
2016-12-27T02:17:46.624Z,23.2
2016-12-27T02:18:27.205Z,23.23
2016-12-27T02:19:07.801Z,23.2
2016-12-27T02:19:48.384Z,23.22
2016-12-27T02:20:28.996Z,23.19
2016-12-27T02:21:09.577Z,23.2
2016-12-27T02:21:50.193Z,23.17
2016-12-27T02:22:30.771Z,23.19
2016-12-27T02:23:11.360Z,23.19
2016-12-27T02:23:51.962Z,23.22
2016-12-27T02:24:32.554Z,23.2
2016-12-27T02:25:13.140Z,23.12
2016-12-27T02:25:53.721Z,23.19
2016-12-27T02:26:34.306Z,23.12
2016-12-27T02:27:14.886Z,23.17
2016-12-27T02:27:55.474Z,23.17
2016-12-27T02:28:36.065Z,23.17
2016-12-27T02:29:16.654Z,23.17
2016-12-27T02:29:57.233Z,23.12
2016-12-27T02:30:37.814Z,23.15
2016-12-27T02:31:18.400Z,23.1
2016-12-27T02:31:59.002Z,23.23
2016-12-27T02:32:39.587Z,23.22
2016-12-27T02:33:20.174Z,23.2
2016-12-27T02:34:00.747Z,23.23
2016-12-27T02:34:41.338Z,23.19
2016-12-27T02:35:21.918Z,23.16
2016-12-27T02:36:02.504Z,23.13
2016-12-27T02:36:43.104Z,23.17
2016-12-27T02:37:23.717Z,23.16
2016-12-27T02:38:04.322Z,23.2
2016-12-27T02:38:44.911Z,23.23
2016-12-27T02:39:25.521Z,23.15
2016-12-27T02:40:06.123Z,23.15
2016-12-27T02:40:46.719Z,23.15
2016-12-27T02:41:27.335Z,23.13
2016-12-27T02:42:07.922Z,23.19
2016-12-27T02:42:48.504Z,23.12
2016-12-27T02:43:29.096Z,23.16
2016-12-27T02:44:09.693Z,23.2
2016-12-27T02:44:50.294Z,23.15
2016-12-27T02:45:30.892Z,23.13
2016-12-27T02:46:11.479Z,23.13
2016-12-27T02:46:52.060Z,23.15
2016-12-27T02:47:32.643Z,23.12
2016-12-27T02:48:13.233Z,23.15
2016-12-27T02:48:53.836Z,23.13
2016-12-27T02:49:34.415Z,23.13
2016-12-27T02:50:15.009Z,23.15
2016-12-27T02:50:55.589Z,23.09
2016-12-27T02:51:36.173Z,23.17
2016-12-27T02:52:16.778Z,23.16
2016-12-27T02:52:57.378Z,23.2
2016-12-27T02:53:37.981Z,23.13
2016-12-27T02:54:18.578Z,23.15
2016-12-27T02:54:59.172Z,23.17
2016-12-27T02:55:39.761Z,23.17
2016-12-27T02:56:20.343Z,23.15
2016-12-27T02:57:00.941Z,23.16
2016-12-27T02:57:41.535Z,23.16
2016-12-27T02:58:22.123Z,23.1
2016-12-27T02:59:02.733Z,23.1
2016-12-27T02:59:43.327Z,23.17
2016-12-27T03:00:23.915Z,23.12
2016-12-27T03:01:04.493Z,23.15
2016-12-27T03:01:45.092Z,23.22
2016-12-27T03:02:25.671Z,23.15
2016-12-27T03:03:06.263Z,23.1
2016-12-27T03:03:46.858Z,23.13
2016-12-27T03:04:27.462Z,23.1
2016-12-27T03:05:08.046Z,23.22
2016-12-27T03:05:48.623Z,23.15
2016-12-27T03:06:29.216Z,23.13
2016-12-27T03:07:09.808Z,23.15
2016-12-27T03:07:50.405Z,23.13
2016-12-27T03:08:30.987Z,23.19
2016-12-27T03:09:11.578Z,23.19
2016-12-27T03:09:52.163Z,23.15
2016-12-27T03:10:32.766Z,23.15
2016-12-27T03:11:13.345Z,23.19
2016-12-27T03:11:53.925Z,23.17
2016-12-27T03:12:34.527Z,23.19
2016-12-27T03:13:15.116Z,23.2
2016-12-27T03:13:55.716Z,23.16
2016-12-27T03:14:36.294Z,23.19
2016-12-27T03:15:16.869Z,23.22
2016-12-27T03:15:57.473Z,23.16
2016-12-27T03:16:38.058Z,23.13
2016-12-27T03:17:18.661Z,23.16
2016-12-27T03:17:59.245Z,23.19
2016-12-27T03:18:39.837Z,23.15
2016-12-27T03:19:20.430Z,23.15
2016-12-27T03:20:01.028Z,23.16
2016-12-27T03:20:41.617Z,23.16
2016-12-27T03:21:22.202Z,23.12
2016-12-27T03:22:02.798Z,23.1
2016-12-27T03:22:43.407Z,23.13
2016-12-27T03:23:23.966Z,23.16
2016-12-27T03:24:04.551Z,23.16
2016-12-27T03:24:45.151Z,23.17
2016-12-27T03:25:25.743Z,23.13
2016-12-27T03:26:06.331Z,23.13
2016-12-27T03:26:46.919Z,23.12
2016-12-27T03:27:27.511Z,23.19
2016-12-27T03:28:08.102Z,23.09
2016-12-27T03:28:48.710Z,23.12
2016-12-27T03:29:29.304Z,23.12
2016-12-27T03:30:09.886Z,23.12
2016-12-27T03:30:50.465Z,23.13
2016-12-27T03:31:31.053Z,23.16
2016-12-27T03:32:11.638Z,23.16
2016-12-27T03:32:52.215Z,23.1
2016-12-27T03:33:32.805Z,23.15
2016-12-27T03:34:13.406Z,23.12
2016-12-27T03:34:53.997Z,23.12
2016-12-27T03:35:34.584Z,23.12
2016-12-27T03:36:15.183Z,23.09
2016-12-27T03:36:55.774Z,23.13
2016-12-27T03:37:36.382Z,23.1
2016-12-27T03:38:16.987Z,23.1
2016-12-27T03:38:57.567Z,23.1
2016-12-27T03:39:38.168Z,23.12
2016-12-27T03:40:18.746Z,23.07
2016-12-27T03:40:59.348Z,23.12
2016-12-27T03:41:39.939Z,23.1
2016-12-27T03:42:20.528Z,23.04
2016-12-27T03:43:01.111Z,23.05
2016-12-27T03:43:41.690Z,23.09
2016-12-27T03:44:22.283Z,23.1
2016-12-27T03:45:02.885Z,23.07
2016-12-27T03:45:43.475Z,23.05
2016-12-27T03:46:24.054Z,23.13
2016-12-27T03:47:04.642Z,23.1
2016-12-27T03:47:45.216Z,23.16
2016-12-27T03:48:25.817Z,23.05
2016-12-27T03:49:06.416Z,23.1
2016-12-27T03:49:47.018Z,23.1
2016-12-27T03:50:27.609Z,23.12
2016-12-27T03:51:08.202Z,23.09
2016-12-27T03:51:48.798Z,23.1
2016-12-27T03:52:30.165Z,23.1
2016-12-27T03:53:09.958Z,23.13
2016-12-27T03:53:50.555Z,23.04
2016-12-27T03:54:31.138Z,23.13
2016-12-27T03:55:11.738Z,23.15
2016-12-27T03:55:52.321Z,23.04
2016-12-27T03:56:32.914Z,23.07
2016-12-27T03:57:13.500Z,23.13
2016-12-27T03:57:54.078Z,23.12
2016-12-27T03:58:34.672Z,23.09
2016-12-27T03:59:15.271Z,23.12
2016-12-27T03:59:55.852Z,23.12
2016-12-27T04:00:36.430Z,23.15
2016-12-27T04:01:17.057Z,23.12
2016-12-27T04:01:57.637Z,23.1
2016-12-27T04:02:38.236Z,23.05
2016-12-27T04:03:18.835Z,23.09
2016-12-27T04:03:59.413Z,23.04
2016-12-27T04:04:40.002Z,23.13
2016-12-27T04:05:20.588Z,23.13
2016-12-27T04:06:01.170Z,23.04
2016-12-27T04:06:41.749Z,23.01
2016-12-27T04:07:22.340Z,23.16
2016-12-27T04:08:02.914Z,23.15
2016-12-27T04:08:43.506Z,23.1
2016-12-27T04:09:24.117Z,23.13
2016-12-27T04:10:04.699Z,23.1
2016-12-27T04:10:45.291Z,23.09
2016-12-27T04:11:25.875Z,23.09
2016-12-27T04:12:06.461Z,23.05
2016-12-27T04:12:47.048Z,23.09
2016-12-27T04:13:27.640Z,23.09
2016-12-27T04:14:08.215Z,23.15
2016-12-27T04:14:48.795Z,23.13
2016-12-27T04:15:29.380Z,23
2016-12-27T04:16:09.992Z,23.09
2016-12-27T04:16:51.247Z,23.13
2016-12-27T04:17:31.836Z,23.07
2016-12-27T04:18:12.417Z,23.09
2016-12-27T04:18:53.022Z,23.09
2016-12-27T04:19:33.622Z,23.1
2016-12-27T04:20:14.214Z,23.05
2016-12-27T04:20:54.828Z,23.13
2016-12-27T04:21:35.405Z,23.1
2016-12-27T04:22:15.990Z,23.12
2016-12-27T04:22:57.183Z,23.1
2016-12-27T04:23:37.169Z,23.13
2016-12-27T04:24:17.762Z,23.07
2016-12-27T04:24:58.345Z,23.1
2016-12-27T04:25:38.934Z,23.04
2016-12-27T04:26:19.515Z,23.07
2016-12-27T04:27:00.093Z,23.04
2016-12-27T04:27:40.685Z,23.09
2016-12-27T04:28:21.288Z,23.01
2016-12-27T04:29:01.856Z,23.01
2016-12-27T04:29:42.447Z,23.04
2016-12-27T04:30:23.036Z,23.04
2016-12-27T04:31:03.626Z,23.1
2016-12-27T04:31:44.209Z,23.07
2016-12-27T04:32:24.819Z,23.05
2016-12-27T04:33:05.397Z,23.05
2016-12-27T04:33:45.985Z,23.05
2016-12-27T04:34:26.569Z,23.05
2016-12-27T04:35:07.149Z,23.07
2016-12-27T04:35:47.755Z,23.05
2016-12-27T04:36:28.336Z,23.05
2016-12-27T04:37:08.923Z,23.09
2016-12-27T04:37:49.522Z,23.07
2016-12-27T04:38:30.110Z,23.07
2016-12-27T04:39:10.736Z,23.1
2016-12-27T04:39:51.331Z,23.01
2016-12-27T04:40:31.924Z,23.02
2016-12-27T04:41:12.517Z,22.95
2016-12-27T04:41:53.123Z,23.09
2016-12-27T04:42:33.703Z,23.02
2016-12-27T04:43:14.288Z,23.09
2016-12-27T04:43:54.872Z,23.05
2016-12-27T04:44:35.471Z,23.07
2016-12-27T04:45:16.076Z,23.02
2016-12-27T04:45:56.665Z,22.97
2016-12-27T04:46:37.257Z,23.13
2016-12-27T04:47:17.847Z,23.02
2016-12-27T04:47:58.431Z,23.09
2016-12-27T04:48:39.019Z,23.04
2016-12-27T04:49:19.603Z,23.07
2016-12-27T04:50:00.189Z,23.04
2016-12-27T04:50:40.770Z,23.1
2016-12-27T04:51:21.351Z,22.98
2016-12-27T04:52:01.963Z,23
2016-12-27T04:52:42.551Z,22.98
2016-12-27T04:53:23.145Z,23.01
2016-12-27T04:54:03.744Z,22.94
2016-12-27T04:54:44.350Z,22.94
2016-12-27T04:55:24.934Z,23.01
2016-12-27T04:56:05.522Z,23.02
2016-12-27T04:56:46.099Z,23
2016-12-27T04:57:26.706Z,23
2016-12-27T04:58:07.302Z,22.94
2016-12-27T04:58:47.891Z,22.97
2016-12-27T04:59:28.488Z,23.02
2016-12-27T05:00:09.070Z,22.95
2016-12-27T05:00:49.668Z,22.97
2016-12-27T05:01:30.274Z,23.05
2016-12-27T05:02:10.864Z,22.97
2016-12-27T05:02:51.447Z,23.05
2016-12-27T05:03:32.029Z,22.94
2016-12-27T05:04:12.627Z,22.98
2016-12-27T05:04:53.241Z,23
2016-12-27T05:05:33.826Z,23
2016-12-27T05:06:14.420Z,23
2016-12-27T05:06:55.010Z,22.94
2016-12-27T05:07:35.610Z,22.98
2016-12-27T05:08:16.219Z,22.98
2016-12-27T05:08:56.828Z,23.01
2016-12-27T05:09:37.419Z,23.01
2016-12-27T05:10:18.013Z,23
2016-12-27T05:10:58.604Z,23.01
2016-12-27T05:11:39.198Z,23.01
2016-12-27T05:12:19.780Z,22.97
2016-12-27T05:13:00.364Z,23
2016-12-27T05:13:40.952Z,22.97
2016-12-27T05:14:21.537Z,23.02
2016-12-27T05:15:02.128Z,23.02
2016-12-27T05:15:42.713Z,23.01
2016-12-27T05:16:23.300Z,23
2016-12-27T05:17:03.903Z,22.92
2016-12-27T05:17:44.497Z,23
2016-12-27T05:18:25.115Z,23
2016-12-27T05:19:05.708Z,22.95
2016-12-27T05:19:46.302Z,22.94
2016-12-27T05:20:26.902Z,23.01
2016-12-27T05:21:07.497Z,23.01
2016-12-27T05:21:48.107Z,22.98
2016-12-27T05:22:28.707Z,23
2016-12-27T05:23:09.276Z,22.97
2016-12-27T05:23:49.856Z,22.91
2016-12-27T05:24:30.446Z,22.98
2016-12-27T05:25:11.026Z,22.98
2016-12-27T05:25:51.611Z,23
2016-12-27T05:26:32.223Z,23.01
2016-12-27T05:27:12.835Z,23
2016-12-27T05:27:53.418Z,23.01
2016-12-27T05:28:34.020Z,22.97
2016-12-27T05:29:14.604Z,23.01
2016-12-27T05:29:55.182Z,23
2016-12-27T05:30:35.769Z,22.98
2016-12-27T05:31:16.360Z,22.91
2016-12-27T05:31:56.949Z,23.01
2016-12-27T05:32:37.545Z,23.02
2016-12-27T05:33:18.135Z,22.95
2016-12-27T05:33:58.750Z,22.97
2016-12-27T05:34:39.337Z,22.97
2016-12-27T05:35:19.933Z,23.04
2016-12-27T05:36:00.553Z,22.95
2016-12-27T05:36:41.135Z,22.97
2016-12-27T05:37:21.749Z,22.91
2016-12-27T05:38:02.338Z,22.97
2016-12-27T05:38:42.947Z,23.02
2016-12-27T05:39:23.544Z,22.95
2016-12-27T05:40:04.149Z,22.95
2016-12-27T05:40:44.746Z,22.92
2016-12-27T05:41:25.352Z,22.98
2016-12-27T05:42:05.948Z,22.98
2016-12-27T05:42:46.557Z,22.94
2016-12-27T05:43:27.151Z,22.95
2016-12-27T05:44:07.758Z,22.92
2016-12-27T05:44:48.338Z,22.98
2016-12-27T05:45:28.917Z,22.92
2016-12-27T05:46:09.519Z,22.95
2016-12-27T05:46:50.103Z,23.02
2016-12-27T05:47:30.703Z,22.9
2016-12-27T05:48:11.281Z,23.02
2016-12-27T05:48:51.873Z,22.97
2016-12-27T05:49:32.485Z,22.97
2016-12-27T05:50:13.075Z,22.95
2016-12-27T05:50:53.679Z,23.01
2016-12-27T05:51:34.282Z,22.94
2016-12-27T05:52:14.854Z,22.98
2016-12-27T05:52:55.444Z,22.97
2016-12-27T05:53:36.037Z,22.91
2016-12-27T05:54:16.630Z,22.92
2016-12-27T05:54:57.203Z,22.98
2016-12-27T05:55:37.812Z,22.94
2016-12-27T05:56:18.404Z,22.91
2016-12-27T05:56:58.993Z,22.88
2016-12-27T05:57:39.588Z,22.92
2016-12-27T05:58:20.177Z,22.95
2016-12-27T05:59:00.764Z,22.95
2016-12-27T05:59:41.345Z,22.95
2016-12-27T06:00:21.947Z,22.92
2016-12-27T06:01:02.532Z,22.97
2016-12-27T06:01:43.120Z,22.91
2016-12-27T06:02:23.712Z,22.92
2016-12-27T06:03:04.309Z,22.88
2016-12-27T06:03:44.894Z,22.92
2016-12-27T06:04:25.492Z,22.91
2016-12-27T06:05:06.079Z,22.88
2016-12-27T06:05:46.663Z,22.95
2016-12-27T06:06:27.255Z,22.91
2016-12-27T06:07:07.840Z,22.9
2016-12-27T06:07:48.415Z,22.91
2016-12-27T06:08:29.010Z,22.88
2016-12-27T06:09:09.602Z,22.94
2016-12-27T06:09:50.223Z,22.86
2016-12-27T06:10:30.790Z,22.92
2016-12-27T06:11:11.368Z,22.94
2016-12-27T06:11:51.950Z,22.88
2016-12-27T06:12:32.535Z,22.88
2016-12-27T06:13:13.119Z,22.94
2016-12-27T06:13:53.697Z,22.83
2016-12-27T06:14:34.300Z,22.88
2016-12-27T06:15:14.890Z,22.86
2016-12-27T06:15:55.466Z,22.86
2016-12-27T06:16:36.039Z,22.9
2016-12-27T06:17:16.648Z,22.91
2016-12-27T06:17:57.240Z,22.95
2016-12-27T06:18:37.843Z,22.92
2016-12-27T06:19:18.443Z,22.95
2016-12-27T06:19:59.029Z,22.95
2016-12-27T06:20:39.636Z,22.92
2016-12-27T06:21:20.221Z,22.92
2016-12-27T06:22:00.802Z,22.86
2016-12-27T06:22:41.390Z,22.88
2016-12-27T06:23:21.985Z,22.95
2016-12-27T06:24:02.576Z,22.92
2016-12-27T06:24:43.154Z,22.94
2016-12-27T06:25:23.751Z,22.83
2016-12-27T06:26:04.352Z,22.85
2016-12-27T06:26:44.936Z,22.88
2016-12-27T06:27:25.526Z,22.83
2016-12-27T06:28:06.113Z,22.94
2016-12-27T06:28:46.696Z,22.94
2016-12-27T06:29:27.281Z,22.91
2016-12-27T06:30:07.877Z,22.83
2016-12-27T06:30:48.470Z,22.85
2016-12-27T06:31:29.062Z,22.94
2016-12-27T06:32:09.662Z,22.9
2016-12-27T06:32:50.246Z,22.92
2016-12-27T06:33:30.829Z,22.88
2016-12-27T06:34:11.408Z,22.85
2016-12-27T06:34:51.994Z,22.86
2016-12-27T06:35:32.577Z,22.88
2016-12-27T06:36:13.171Z,22.95
2016-12-27T06:36:53.755Z,22.91
2016-12-27T06:37:34.351Z,22.94
2016-12-27T06:38:14.954Z,22.85
2016-12-27T06:38:55.526Z,22.86
2016-12-27T06:39:36.117Z,22.85
2016-12-27T06:40:16.704Z,22.88
2016-12-27T06:40:57.287Z,22.86
2016-12-27T06:41:37.879Z,22.86
2016-12-27T06:42:18.472Z,22.86
2016-12-27T06:42:59.055Z,22.91
2016-12-27T06:43:39.634Z,22.85
2016-12-27T06:44:20.220Z,22.86
2016-12-27T06:45:00.802Z,22.85
2016-12-27T06:45:41.398Z,22.86
2016-12-27T06:46:21.998Z,22.85
2016-12-27T06:47:02.608Z,22.85
2016-12-27T06:47:43.187Z,22.85
2016-12-27T06:48:23.791Z,22.92
2016-12-27T06:49:04.387Z,22.83
2016-12-27T06:49:44.983Z,22.85
2016-12-27T06:50:25.565Z,22.8
2016-12-27T06:51:06.147Z,22.86
2016-12-27T06:51:46.719Z,22.86
2016-12-27T06:52:27.303Z,22.86
2016-12-27T06:53:07.906Z,22.85
2016-12-27T06:53:48.494Z,22.92
2016-12-27T06:54:29.092Z,22.83
2016-12-27T06:55:09.683Z,22.85
2016-12-27T06:55:50.263Z,22.85
2016-12-27T06:56:30.844Z,22.85
2016-12-27T06:57:11.430Z,22.97
2016-12-27T06:57:52.020Z,22.92
2016-12-27T06:58:32.605Z,22.85
2016-12-27T06:59:13.181Z,22.88
2016-12-27T06:59:53.763Z,22.88
2016-12-27T07:00:34.357Z,22.91
2016-12-27T07:01:14.955Z,22.92
2016-12-27T07:01:55.545Z,22.91
2016-12-27T07:02:36.128Z,22.86
2016-12-27T07:03:16.726Z,22.92
2016-12-27T07:03:57.315Z,22.82
2016-12-27T07:04:37.898Z,22.86
2016-12-27T07:05:18.476Z,22.91
2016-12-27T07:05:59.058Z,22.88
2016-12-27T07:06:39.670Z,22.92
2016-12-27T07:07:20.256Z,22.9
2016-12-27T07:08:00.846Z,22.9
2016-12-27T07:08:41.430Z,22.83
2016-12-27T07:09:22.011Z,22.91
2016-12-27T07:10:02.601Z,22.83
2016-12-27T07:10:43.198Z,22.83
2016-12-27T07:11:23.777Z,22.88
2016-12-27T07:12:04.362Z,22.9
2016-12-27T07:12:44.952Z,22.82
2016-12-27T07:13:25.536Z,22.92
2016-12-27T07:14:06.111Z,22.83
2016-12-27T07:14:46.690Z,22.86
2016-12-27T07:15:27.309Z,22.91
2016-12-27T07:16:07.892Z,22.91
2016-12-27T07:16:48.494Z,22.88
2016-12-27T07:17:29.087Z,22.86
2016-12-27T07:18:09.677Z,22.94
2016-12-27T07:18:50.265Z,22.85
2016-12-27T07:19:30.855Z,22.88
2016-12-27T07:20:11.437Z,22.85
2016-12-27T07:20:52.013Z,22.88
2016-12-27T07:21:32.606Z,22.88
2016-12-27T07:22:13.198Z,22.86
2016-12-27T07:22:53.799Z,22.9
2016-12-27T07:23:34.385Z,22.9
2016-12-27T07:24:15.002Z,22.85
2016-12-27T07:24:55.607Z,22.92
2016-12-27T07:25:36.206Z,22.94
2016-12-27T07:26:16.808Z,22.83
2016-12-27T07:26:57.406Z,22.85
2016-12-27T07:27:37.995Z,22.9
2016-12-27T07:28:18.600Z,22.92
2016-12-27T07:28:59.201Z,22.86
2016-12-27T07:29:39.784Z,22.92
2016-12-27T07:30:20.372Z,22.85
2016-12-27T07:31:00.993Z,22.88
2016-12-27T07:31:41.580Z,22.88
2016-12-27T07:32:22.188Z,22.85
2016-12-27T07:33:02.778Z,22.83
2016-12-27T07:33:43.395Z,22.95
2016-12-27T07:34:23.989Z,22.8
2016-12-27T07:35:04.587Z,22.83
2016-12-27T07:35:45.177Z,22.92
2016-12-27T07:36:25.773Z,22.97
2016-12-27T07:37:06.419Z,22.86
2016-12-27T07:37:47.008Z,22.88
2016-12-27T07:38:27.616Z,22.86
2016-12-27T07:39:08.233Z,22.88
2016-12-27T07:39:48.868Z,22.88
2016-12-27T07:40:29.458Z,22.83
2016-12-27T07:41:10.051Z,22.9
2016-12-27T07:41:50.669Z,22.9
2016-12-27T07:42:31.265Z,22.85
2016-12-27T07:43:11.860Z,22.92
2016-12-27T07:43:52.489Z,22.83
2016-12-27T07:44:33.060Z,22.86
2016-12-27T07:45:13.650Z,22.86
2016-12-27T07:45:54.245Z,22.95
2016-12-27T07:46:34.894Z,22.94
2016-12-27T07:47:15.485Z,22.88
2016-12-27T07:47:56.083Z,22.86
2016-12-27T07:48:36.672Z,22.85
2016-12-27T07:49:17.278Z,22.86
2016-12-27T07:49:57.864Z,22.88
2016-12-27T07:50:38.451Z,22.91
2016-12-27T07:51:19.068Z,22.94
2016-12-27T07:51:59.665Z,22.95
2016-12-27T07:52:40.259Z,22.85
2016-12-27T07:53:20.857Z,22.85
2016-12-27T07:54:01.447Z,22.88
2016-12-27T07:54:42.038Z,22.88
2016-12-27T07:55:22.661Z,22.82
2016-12-27T07:56:03.245Z,22.86
2016-12-27T07:56:43.851Z,22.86
2016-12-27T07:57:24.452Z,22.9
2016-12-27T07:58:05.054Z,22.83
2016-12-27T07:58:45.667Z,22.95
2016-12-27T07:59:26.254Z,22.85
2016-12-27T08:00:06.835Z,22.92
2016-12-27T08:00:47.426Z,22.98
2016-12-27T08:01:28.032Z,22.92
2016-12-27T08:02:08.631Z,22.86
2016-12-27T08:02:49.229Z,22.86
2016-12-27T08:03:29.842Z,22.91
2016-12-27T08:04:10.442Z,22.83
2016-12-27T08:04:51.027Z,22.85
2016-12-27T08:05:31.616Z,22.85
2016-12-27T08:06:12.221Z,22.8
2016-12-27T08:06:52.826Z,22.82
2016-12-27T08:07:33.419Z,22.94
2016-12-27T08:08:14.017Z,22.95
2016-12-27T08:08:54.667Z,22.9
2016-12-27T08:09:35.264Z,22.88
2016-12-27T08:10:15.867Z,22.91
2016-12-27T08:10:56.460Z,22.9
2016-12-27T08:11:37.054Z,22.88
2016-12-27T08:12:17.664Z,22.9
2016-12-27T08:12:58.250Z,22.88
2016-12-27T08:13:38.837Z,22.92
2016-12-27T08:14:19.475Z,22.95
2016-12-27T08:15:00.056Z,22.98
2016-12-27T08:15:40.658Z,22.92
2016-12-27T08:16:21.247Z,22.94
2016-12-27T08:17:01.835Z,22.92
2016-12-27T08:17:42.435Z,22.9
2016-12-27T08:18:23.021Z,22.91
2016-12-27T08:19:03.616Z,22.92
2016-12-27T08:19:44.209Z,22.98
2016-12-27T08:20:24.797Z,22.95
2016-12-27T08:21:05.428Z,22.98
2016-12-27T08:21:46.058Z,22.94
2016-12-27T08:22:26.650Z,22.98
2016-12-27T08:23:07.231Z,22.98
2016-12-27T08:23:47.817Z,22.9
2016-12-27T08:24:28.456Z,22.92
2016-12-27T08:25:09.039Z,23.04
2016-12-27T08:25:49.654Z,22.97
2016-12-27T08:26:30.244Z,23.04
2016-12-27T08:27:10.850Z,22.94
2016-12-27T08:27:51.468Z,22.97
2016-12-27T08:28:32.039Z,22.98
2016-12-27T08:29:12.624Z,23.02
2016-12-27T08:29:53.212Z,22.97
2016-12-27T08:30:33.788Z,22.92
2016-12-27T08:31:14.373Z,22.91
2016-12-27T08:31:54.959Z,22.91
2016-12-27T08:32:35.573Z,22.95
2016-12-27T08:33:16.159Z,23.02
2016-12-27T08:33:56.748Z,22.97
2016-12-27T08:34:37.359Z,22.98
2016-12-27T08:35:17.958Z,23.01
2016-12-27T08:35:58.553Z,23
2016-12-27T08:36:39.137Z,22.98
2016-12-27T08:37:19.753Z,23.04
2016-12-27T08:38:00.343Z,22.98
2016-12-27T08:38:40.952Z,22.91
2016-12-27T08:39:21.582Z,22.97
2016-12-27T08:40:02.214Z,22.86
2016-12-27T08:40:42.806Z,23
2016-12-27T08:41:23.411Z,22.91
2016-12-27T08:42:04.021Z,23.01
2016-12-27T08:42:44.645Z,22.94
2016-12-27T08:43:25.243Z,22.98
2016-12-27T08:44:05.872Z,22.98
2016-12-27T08:44:46.473Z,23
2016-12-27T08:45:27.098Z,22.98
2016-12-27T08:46:07.722Z,23.04